This is the latest recevied weather packets stored in our database for station/object AB4KN. If no packets are shown the sender has not sent any weather packets the latest 1 day(s).
| Time | Temp. | Humidity | Pressure | Rain* | Wind** | Luminosity | Snow |
|---|---|---|---|---|---|---|---|
| 1778104715 | 25.56° C | 70% | 1017.5 hPa | 0 mm | - | 10 W/m² | - |
| 1778104107 | 26.11° C | 68% | 1017.5 hPa | 0 mm | - | 20 W/m² | - |
| 1778103804 | 26.67° C | 68% | 1017.3 hPa | 0 mm | - | 41 W/m² | - |
| 1778103199 | 26.11° C | 68% | 1017.3 hPa | 0 mm | - | 68 W/m² | - |
| 1778102592 | 26.67° C | 68% | 1017.7 hPa | 0 mm | - | 55 W/m² | - |
| 1778102287 | 26.67° C | 66% | 1017.6 hPa | 0 mm | - | 58 W/m² | - |
| 1778100770 | 26.11° C | 68% | 1017.7 hPa | 0 mm | - | 57 W/m² | - |
| 1778100467 | 26.11° C | 68% | 1018 hPa | 0 mm | - | 64 W/m² | - |
| 1778100165 | 26.11° C | 67% | 1018.2 hPa | 0 mm | - | 68 W/m² | - |
| 1778098650 | 26.67° C | 66% | 1018.5 hPa | 0 mm | - | 107 W/m² | - |
| 1778097437 | 25.56° C | 69% | 1018.8 hPa | 0 mm | - | 25 W/m² | - |
| 1778096225 | 25.56° C | 68% | 1019.6 hPa | 0 mm | - | 31 W/m² | - |
| 1778095012 | 26.11° C | 66% | 1019.8 hPa | 0 mm | - | 129 W/m² | - |
| 1778094405 | 26.11° C | 65% | 1019.9 hPa | 0 mm | - | 127 W/m² | - |
| 1778092282 | 25.56° C | 66% | 1020.1 hPa | 0 mm | - | 61 W/m² | - |
| 1778091980 | 25.56° C | 65% | 1020 hPa | 0 mm | - | 88 W/m² | - |
| 1778090465 | 26.11° C | 64% | 1020 hPa | 0 mm | - | 78 W/m² | - |
| 1778090161 | 25.56° C | 64% | 1020.1 hPa | 0 mm | - | 90 W/m² | - |
| 1778088950 | 26.67° C | 62% | 1019.8 hPa | 0 mm | - | 147 W/m² | - |
| 1778088344 | 25.56° C | 66% | 1019.8 hPa | 0 mm | - | 632 W/m² | - |
| 1778088040 | 25° C | 66% | 1019.9 hPa | 0 mm | - | 402 W/m² | - |
| 1778086830 | 25° C | 68% | 1020.2 hPa | 0 mm | - | 418 W/m² | - |
| 1778086224 | 24.44° C | 67% | 1020.7 hPa | 0 mm | - | 267 W/m² | - |
| 1778085921 | 24.44° C | 68% | 1020.7 hPa | 0 mm | - | 166 W/m² | - |
| 1778084404 | 25° C | 66% | 1020.8 hPa | 0 mm | - | 246 W/m² | - |
* Rain latest hour (hover to see other rain measurements)
** Current wind speed in m/s (hover to see current wind gust speed)